createdAt,value
2023-02-06T00:00:03.167Z,-1.30
2023-02-06T00:01:03.166Z,-1.30
2023-02-06T00:02:03.253Z,-1.30
2023-02-06T00:03:03.176Z,-1.20
2023-02-06T00:04:03.172Z,-1.20
2023-02-06T00:05:03.160Z,-1.30
2023-02-06T00:06:03.201Z,-1.20
2023-02-06T00:07:03.421Z,-1.20
2023-02-06T00:08:03.366Z,-1.20
2023-02-06T00:09:03.501Z,-1.20
2023-02-06T00:10:03.483Z,-1.20
2023-02-06T00:11:03.576Z,-1.20
2023-02-06T00:12:03.635Z,-1.20
2023-02-06T00:13:02.627Z,-1.20
2023-02-06T00:14:02.707Z,-1.20
2023-02-06T00:15:02.723Z,-1.20
2023-02-06T00:16:02.884Z,-1.20
2023-02-06T00:17:02.854Z,-1.20
2023-02-06T00:18:02.919Z,-1.20
2023-02-06T00:19:02.869Z,-1.20
2023-02-06T00:20:02.932Z,-1.20
2023-02-06T00:21:02.857Z,-1.20
2023-02-06T00:22:02.841Z,-1.20
2023-02-06T00:23:02.800Z,-1.20
2023-02-06T00:24:02.876Z,-1.20
2023-02-06T00:25:02.890Z,-1.20
2023-02-06T00:26:02.968Z,-1.10
2023-02-06T00:27:03.043Z,-1.10
2023-02-06T00:28:03.141Z,-1.10
2023-02-06T00:29:03.044Z,-1.10
2023-02-06T00:30:03.065Z,-1.10
2023-02-06T00:31:03.199Z,-1.10
2023-02-06T00:32:03.130Z,-1.10
2023-02-06T00:33:03.240Z,-1.10
2023-02-06T00:34:03.360Z,-1.10
2023-02-06T00:35:03.284Z,-1.10
2023-02-06T00:36:03.276Z,-1.10
2023-02-06T00:37:03.263Z,-1.00
2023-02-06T00:38:03.312Z,-1.10
2023-02-06T00:39:03.428Z,-1.00
2023-02-06T00:40:03.474Z,-1.00
2023-02-06T00:41:03.414Z,-1.00
2023-02-06T00:42:03.402Z,-1.00
2023-02-06T00:43:03.375Z,-1.00
2023-02-06T00:44:03.325Z,-1.00
2023-02-06T00:45:03.328Z,-1.00
2023-02-06T00:46:03.508Z,-1.00
2023-02-06T00:47:03.418Z,-1.00
2023-02-06T00:48:03.397Z,-1.00
2023-02-06T00:49:03.324Z,-1.00
2023-02-06T00:50:03.291Z,-1.00
2023-02-06T00:51:03.304Z,-1.00
2023-02-06T00:52:03.382Z,-0.90
2023-02-06T00:53:03.480Z,-0.90
2023-02-06T00:54:03.442Z,-0.90
2023-02-06T00:55:03.468Z,-0.90
2023-02-06T00:56:03.552Z,-0.90
2023-02-06T00:57:03.576Z,-0.90
2023-02-06T00:58:03.543Z,-0.90
2023-02-06T00:59:03.473Z,-0.90
2023-02-06T01:00:03.362Z,-0.90
2023-02-06T01:01:03.387Z,-0.90
2023-02-06T01:02:03.475Z,-0.90
2023-02-06T01:03:03.519Z,-0.90
2023-02-06T01:04:03.457Z,-0.80
2023-02-06T01:05:03.364Z,-0.80
2023-02-06T01:06:03.449Z,-0.80
2023-02-06T01:07:03.410Z,-0.80
2023-02-06T01:08:04.394Z,-0.80
2023-02-06T01:09:03.406Z,-0.80
2023-02-06T01:10:03.721Z,-0.80
2023-02-06T01:11:02.798Z,-0.80
2023-02-06T01:12:02.852Z,-0.80
2023-02-06T01:13:02.780Z,-0.80
2023-02-06T01:14:02.810Z,-0.80
2023-02-06T01:15:02.907Z,-0.80
2023-02-06T01:16:02.958Z,-0.80
2023-02-06T01:17:02.965Z,-0.80
2023-02-06T01:18:02.996Z,-0.80
2023-02-06T01:19:02.990Z,-0.80
2023-02-06T01:20:03.002Z,-0.80
2023-02-06T01:21:02.975Z,-0.80
2023-02-06T01:22:02.845Z,-0.70
2023-02-06T01:23:02.805Z,-0.70
2023-02-06T01:24:02.864Z,-0.70
2023-02-06T01:25:02.818Z,-0.70
2023-02-06T01:26:02.779Z,-0.70
2023-02-06T01:27:02.766Z,-0.70
2023-02-06T01:28:02.815Z,-0.70
2023-02-06T01:29:02.744Z,-0.70
2023-02-06T01:30:02.693Z,-0.70
2023-02-06T01:31:02.905Z,-0.70
2023-02-06T01:32:02.794Z,-0.70
2023-02-06T01:33:02.746Z,-0.70
2023-02-06T01:34:02.725Z,-0.70
2023-02-06T01:35:02.754Z,-0.70
2023-02-06T01:36:02.739Z,-0.60
2023-02-06T01:37:02.813Z,-0.70
2023-02-06T01:38:02.726Z,-0.70
2023-02-06T01:39:02.768Z,-0.70
2023-02-06T01:40:02.825Z,-0.60
2023-02-06T01:41:02.883Z,-0.60
2023-02-06T01:42:02.931Z,-0.70
2023-02-06T01:43:02.961Z,-0.60
2023-02-06T01:44:02.997Z,-0.60
2023-02-06T01:45:04.002Z,-0.60
2023-02-06T01:46:02.954Z,-0.60
2023-02-06T01:47:02.953Z,-0.60
2023-02-06T01:48:02.922Z,-0.60
2023-02-06T01:49:03.274Z,-0.60
2023-02-06T01:50:02.981Z,-0.60
2023-02-06T01:51:02.946Z,-0.60
2023-02-06T01:52:02.904Z,-0.60
2023-02-06T01:53:02.927Z,-0.60
2023-02-06T01:54:02.990Z,-0.60
2023-02-06T01:55:02.987Z,-0.60
2023-02-06T01:56:02.993Z,-0.60
2023-02-06T01:57:03.012Z,-0.60
2023-02-06T01:58:02.962Z,-0.60
2023-02-06T01:59:02.948Z,-0.60
2023-02-06T02:00:02.944Z,-0.60
2023-02-06T02:01:02.938Z,-0.60
2023-02-06T02:02:02.930Z,-0.60
2023-02-06T02:03:02.772Z,-0.60
2023-02-06T02:04:02.834Z,-0.50
2023-02-06T02:05:02.807Z,-0.50
2023-02-06T02:06:02.816Z,-0.50
2023-02-06T02:07:02.774Z,-0.50
2023-02-06T02:08:02.830Z,-0.50
2023-02-06T02:09:02.798Z,-0.50
2023-02-06T02:10:02.780Z,-0.50
2023-02-06T02:11:02.813Z,-0.50
2023-02-06T02:12:02.771Z,-0.50
2023-02-06T02:13:02.826Z,-0.50
2023-02-06T02:14:02.791Z,-0.50
2023-02-06T02:15:02.832Z,-0.50
2023-02-06T02:16:02.810Z,-0.50
2023-02-06T02:17:02.940Z,-0.50
2023-02-06T02:18:02.814Z,-0.50
2023-02-06T02:19:02.925Z,-0.50
2023-02-06T02:20:02.909Z,-0.50
2023-02-06T02:21:02.846Z,-0.50
2023-02-06T02:22:02.778Z,-0.50
2023-02-06T02:23:02.748Z,-0.50
2023-02-06T02:24:02.853Z,-0.50
2023-02-06T02:25:02.814Z,-0.50
2023-02-06T02:26:02.763Z,-0.50
2023-02-06T02:27:02.780Z,-0.50
2023-02-06T02:28:02.726Z,-0.50
2023-02-06T02:29:02.683Z,-0.50
2023-02-06T02:30:02.642Z,-0.50
2023-02-06T02:31:02.831Z,-0.50
2023-02-06T02:32:02.764Z,-0.50
2023-02-06T02:33:02.719Z,-0.40
2023-02-06T02:34:02.822Z,-0.40
2023-02-06T02:35:02.770Z,-0.40
2023-02-06T02:36:02.812Z,-0.50
2023-02-06T02:37:02.683Z,-0.40
2023-02-06T02:38:02.728Z,-0.40
2023-02-06T02:39:02.866Z,-0.50
2023-02-06T02:40:02.868Z,-0.40
2023-02-06T02:41:02.797Z,-0.40
2023-02-06T02:42:02.909Z,-0.40
2023-02-06T02:43:02.801Z,-0.40
2023-02-06T02:44:02.741Z,-0.40
2023-02-06T02:45:02.865Z,-0.40
2023-02-06T02:46:03.020Z,-0.40
2023-02-06T02:47:02.918Z,-0.40
2023-02-06T02:48:02.942Z,-0.40
2023-02-06T02:49:02.922Z,-0.40
2023-02-06T02:50:03.052Z,-0.40
2023-02-06T02:51:02.990Z,-0.40
2023-02-06T02:52:02.897Z,-0.40
2023-02-06T02:53:02.932Z,-0.40
2023-02-06T02:54:02.926Z,-0.40
2023-02-06T02:55:02.944Z,-0.40
2023-02-06T02:56:03.078Z,-0.40
2023-02-06T02:57:02.999Z,-0.40
2023-02-06T02:58:02.972Z,-0.40
2023-02-06T02:59:03.001Z,-0.40
2023-02-06T03:00:03.046Z,-0.40
2023-02-06T03:01:03.021Z,-0.40
2023-02-06T03:02:03.034Z,-0.40
2023-02-06T03:03:03.062Z,-0.40
2023-02-06T03:04:03.128Z,-0.40
2023-02-06T03:05:03.120Z,-0.40
2023-02-06T03:06:03.003Z,-0.40
2023-02-06T03:07:03.076Z,-0.40
2023-02-06T03:08:03.001Z,-0.40
2023-02-06T03:09:02.949Z,-0.40
2023-02-06T03:10:02.883Z,-0.40
2023-02-06T03:11:02.950Z,-0.40
2023-02-06T03:12:02.925Z,-0.40
2023-02-06T03:13:02.865Z,-0.40
2023-02-06T03:14:02.902Z,-0.40
2023-02-06T03:15:02.908Z,-0.40
2023-02-06T03:16:02.964Z,-0.40
2023-02-06T03:17:03.041Z,-0.40
2023-02-06T03:18:03.109Z,-0.40
2023-02-06T03:19:03.181Z,-0.40
2023-02-06T03:20:03.236Z,-0.40
2023-02-06T03:21:02.684Z,-0.40
2023-02-06T03:22:02.700Z,-0.40
2023-02-06T03:23:02.836Z,-0.40
2023-02-06T03:24:02.875Z,-0.40
2023-02-06T03:25:03.115Z,-0.40
2023-02-06T03:26:03.100Z,-0.40
2023-02-06T03:27:03.045Z,-0.40
2023-02-06T03:28:03.139Z,-0.40
2023-02-06T03:29:03.053Z,-0.40
2023-02-06T03:30:03.009Z,-0.40
2023-02-06T03:31:03.006Z,-0.40
2023-02-06T03:32:03.062Z,-0.40
2023-02-06T03:33:03.032Z,-0.40
2023-02-06T03:34:03.076Z,-0.40
2023-02-06T03:35:03.105Z,-0.40
2023-02-06T03:36:03.105Z,-0.40
2023-02-06T03:37:03.094Z,-0.40
2023-02-06T03:38:03.024Z,-0.40
2023-02-06T03:39:03.011Z,-0.40
2023-02-06T03:40:03.001Z,-0.40
2023-02-06T03:41:02.937Z,-0.40
2023-02-06T03:42:02.861Z,-0.40
2023-02-06T03:43:02.944Z,-0.40
2023-02-06T03:44:02.929Z,-0.40
2023-02-06T03:45:02.904Z,-0.40
2023-02-06T03:46:02.900Z,-0.40
2023-02-06T03:47:02.797Z,-0.40
2023-02-06T03:48:02.759Z,-0.40
2023-02-06T03:49:02.703Z,-0.40
2023-02-06T03:50:02.760Z,-0.40
2023-02-06T03:51:02.690Z,-0.40
2023-02-06T03:52:02.750Z,-0.40
2023-02-06T03:53:02.642Z,-0.40
2023-02-06T03:54:02.681Z,-0.40
2023-02-06T03:55:02.609Z,-0.40
2023-02-06T03:56:02.632Z,-0.40
2023-02-06T03:57:02.674Z,-0.40
2023-02-06T03:58:02.770Z,-0.40
2023-02-06T03:59:02.745Z,-0.40
2023-02-06T04:00:02.759Z,-0.30
2023-02-06T04:01:02.789Z,-0.40
2023-02-06T04:02:02.831Z,-0.30
2023-02-06T04:03:02.825Z,-0.30
2023-02-06T04:04:02.909Z,-0.30
2023-02-06T04:05:02.867Z,-0.30
2023-02-06T04:06:02.980Z,-0.30
2023-02-06T04:07:03.062Z,-0.30
2023-02-06T04:08:03.011Z,-0.30
2023-02-06T04:09:02.908Z,-0.30
2023-02-06T04:10:02.951Z,-0.30
2023-02-06T04:11:02.956Z,-0.30
2023-02-06T04:12:02.898Z,-0.30
2023-02-06T04:13:03.354Z,-0.30
2023-02-06T04:14:02.829Z,-0.30
2023-02-06T04:15:02.855Z,-0.30
2023-02-06T04:16:02.872Z,-0.30
2023-02-06T04:17:02.949Z,-0.30
2023-02-06T04:18:03.467Z,-0.30
2023-02-06T04:19:02.968Z,-0.30
2023-02-06T04:20:02.929Z,-0.30
2023-02-06T04:21:03.092Z,-0.30
2023-02-06T04:22:03.022Z,-0.30
2023-02-06T04:23:02.970Z,-0.30
2023-02-06T04:24:02.997Z,-0.30
2023-02-06T04:25:02.929Z,-0.30
2023-02-06T04:26:02.897Z,-0.30
2023-02-06T04:27:02.828Z,-0.30
2023-02-06T04:28:02.806Z,-0.30
2023-02-06T04:29:02.858Z,-0.30
2023-02-06T04:30:02.911Z,-0.30
2023-02-06T04:31:02.934Z,-0.30
2023-02-06T04:32:02.810Z,-0.30
2023-02-06T04:33:02.933Z,-0.30
2023-02-06T04:34:02.898Z,-0.30
2023-02-06T04:35:02.874Z,-0.30
2023-02-06T04:36:02.913Z,-0.30
2023-02-06T04:37:02.953Z,-0.30
2023-02-06T04:38:02.916Z,-0.30
2023-02-06T04:39:02.944Z,-0.30
2023-02-06T04:40:03.059Z,-0.30
2023-02-06T04:41:02.972Z,-0.30
2023-02-06T04:42:03.041Z,-0.30
2023-02-06T04:43:03.121Z,-0.30
2023-02-06T04:44:03.021Z,-0.30
2023-02-06T04:45:03.030Z,-0.30
2023-02-06T04:46:02.998Z,-0.30
2023-02-06T04:47:02.991Z,-0.30
2023-02-06T04:48:03.019Z,-0.30
2023-02-06T04:49:02.995Z,-0.30
2023-02-06T04:50:02.878Z,-0.30
2023-02-06T04:51:03.023Z,-0.30
2023-02-06T04:52:02.974Z,-0.30
2023-02-06T04:53:02.928Z,-0.30
2023-02-06T04:54:03.011Z,-0.30
2023-02-06T04:55:02.968Z,-0.30
2023-02-06T04:56:02.952Z,-0.30
2023-02-06T04:57:02.879Z,-0.30
2023-02-06T04:58:02.957Z,-0.30
2023-02-06T04:59:02.949Z,-0.30
2023-02-06T05:00:02.825Z,-0.30
2023-02-06T05:01:02.901Z,-0.30
2023-02-06T05:02:02.990Z,-0.30
2023-02-06T05:03:03.047Z,-0.30
2023-02-06T05:04:02.950Z,-0.30
2023-02-06T05:05:03.089Z,-0.30
2023-02-06T05:06:03.261Z,-0.30
2023-02-06T05:07:05.411Z,-0.30
2023-02-06T05:08:03.254Z,-0.30
2023-02-06T05:09:03.297Z,-0.30
2023-02-06T05:10:04.195Z,-0.30
2023-02-06T05:11:02.736Z,-0.30
2023-02-06T05:12:03.758Z,-0.30
2023-02-06T05:13:02.736Z,-0.30
2023-02-06T05:14:02.685Z,-0.30
2023-02-06T05:15:02.638Z,-0.30
2023-02-06T05:16:03.742Z,-0.30
2023-02-06T05:17:03.600Z,-0.30
2023-02-06T05:18:03.534Z,-0.20
2023-02-06T05:19:02.666Z,-0.30
2023-02-06T05:20:03.145Z,-0.20
2023-02-06T05:21:03.262Z,-0.30
2023-02-06T05:22:03.268Z,-0.30
2023-02-06T05:23:03.313Z,-0.30
2023-02-06T05:24:03.337Z,-0.20
2023-02-06T05:25:03.685Z,-0.30
2023-02-06T05:26:03.512Z,-0.30
2023-02-06T05:27:03.557Z,-0.30
2023-02-06T05:28:02.666Z,-0.30
2023-02-06T05:29:02.748Z,-0.20
2023-02-06T05:30:02.809Z,-0.30
2023-02-06T05:31:02.958Z,-0.20
2023-02-06T05:32:02.825Z,-0.30
2023-02-06T05:33:02.704Z,-0.20
2023-02-06T05:34:02.617Z,-0.20
2023-02-06T05:35:03.652Z,-0.20
2023-02-06T05:36:03.639Z,-0.20
2023-02-06T05:37:02.661Z,-0.20
2023-02-06T05:38:02.753Z,-0.20
2023-02-06T05:39:02.858Z,-0.20
2023-02-06T05:40:02.803Z,-0.20
2023-02-06T05:41:02.823Z,-0.20
2023-02-06T05:42:02.913Z,-0.20
2023-02-06T05:43:02.847Z,-0.20
2023-02-06T05:44:02.896Z,-0.20
2023-02-06T05:45:02.805Z,-0.20
2023-02-06T05:46:02.852Z,-0.20
2023-02-06T05:47:02.917Z,-0.20
2023-02-06T05:48:02.972Z,-0.20
2023-02-06T05:49:03.136Z,-0.20
2023-02-06T05:50:03.071Z,-0.20
2023-02-06T05:51:03.128Z,-0.20
2023-02-06T05:52:03.036Z,-0.20
2023-02-06T05:53:03.021Z,-0.20
2023-02-06T05:54:03.064Z,-0.20
2023-02-06T05:55:03.106Z,-0.20
2023-02-06T05:56:03.094Z,-0.20
2023-02-06T05:57:03.146Z,-0.20
2023-02-06T05:58:04.437Z,-0.30
2023-02-06T05:59:03.000Z,-0.20
2023-02-06T06:00:02.998Z,-0.20
2023-02-06T06:01:03.003Z,-0.30
2023-02-06T06:02:03.039Z,-0.30
2023-02-06T06:03:03.042Z,-0.20
2023-02-06T06:04:03.057Z,-0.30
2023-02-06T06:05:03.078Z,-0.30
2023-02-06T06:06:03.102Z,-0.30
2023-02-06T06:07:03.089Z,-0.30
2023-02-06T06:08:03.161Z,-0.30
2023-02-06T06:09:03.147Z,-0.30
2023-02-06T06:10:03.167Z,-0.30
2023-02-06T06:11:03.069Z,-0.30
2023-02-06T06:12:03.021Z,-0.30
2023-02-06T06:13:03.011Z,-0.30
2023-02-06T06:14:03.080Z,-0.30
2023-02-06T06:15:03.144Z,-0.30
2023-02-06T06:16:03.257Z,-0.20
2023-02-06T06:17:03.232Z,-0.30
2023-02-06T06:18:03.201Z,-0.20
2023-02-06T06:19:03.277Z,-0.30
2023-02-06T06:20:03.183Z,-0.30
2023-02-06T06:21:03.225Z,-0.30
2023-02-06T06:22:03.214Z,-0.30
2023-02-06T06:23:03.208Z,-0.30
2023-02-06T06:24:03.141Z,-0.20
2023-02-06T06:25:03.168Z,-0.30
2023-02-06T06:26:03.298Z,-0.30
2023-02-06T06:27:03.310Z,-0.30
2023-02-06T06:28:03.217Z,-0.30
2023-02-06T06:29:03.307Z,-0.20
2023-02-06T06:30:03.205Z,-0.20
2023-02-06T06:31:03.282Z,-0.20
2023-02-06T06:32:03.262Z,-0.30
2023-02-06T06:33:03.313Z,-0.20
2023-02-06T06:34:03.234Z,-0.30
2023-02-06T06:35:03.360Z,-0.20
2023-02-06T06:36:03.235Z,-0.20
2023-02-06T06:37:03.375Z,-0.20
2023-02-06T06:38:03.387Z,-0.20
2023-02-06T06:39:03.432Z,-0.20
2023-02-06T06:40:03.461Z,-0.20
2023-02-06T06:41:03.568Z,-0.30
2023-02-06T06:42:02.635Z,-0.20
2023-02-06T06:43:03.631Z,-0.20
2023-02-06T06:44:03.563Z,-0.20
2023-02-06T06:45:03.463Z,-0.20
2023-02-06T06:46:03.446Z,-0.20
2023-02-06T06:47:03.404Z,-0.20
2023-02-06T06:48:03.508Z,-0.20
2023-02-06T06:49:03.453Z,-0.20
2023-02-06T06:50:03.573Z,-0.20
2023-02-06T06:51:03.605Z,-0.20
2023-02-06T06:52:04.465Z,-0.20
2023-02-06T06:53:02.623Z,-0.20
2023-02-06T06:54:02.735Z,-0.20
2023-02-06T06:55:02.680Z,-0.20
2023-02-06T06:56:02.665Z,-0.20
2023-02-06T06:57:02.670Z,-0.20
2023-02-06T06:58:02.650Z,-0.20
2023-02-06T06:59:02.639Z,-0.20
2023-02-06T07:00:02.700Z,-0.20
2023-02-06T07:01:02.965Z,-0.20
2023-02-06T07:02:02.904Z,-0.20
2023-02-06T07:03:02.809Z,-0.20
2023-02-06T07:04:02.869Z,-0.20
2023-02-06T07:05:02.837Z,-0.20
2023-02-06T07:06:02.812Z,-0.20
2023-02-06T07:07:02.846Z,-0.20
2023-02-06T07:08:02.883Z,-0.20
2023-02-06T07:09:02.922Z,-0.20
2023-02-06T07:10:02.945Z,-0.20
2023-02-06T07:11:02.817Z,-0.20
2023-02-06T07:12:02.791Z,-0.20
2023-02-06T07:13:02.954Z,-0.20
2023-02-06T07:14:03.027Z,-0.20
2023-02-06T07:15:03.109Z,-0.20
2023-02-06T07:16:03.113Z,-0.20
2023-02-06T07:17:03.092Z,-0.20
2023-02-06T07:18:03.153Z,-0.20
2023-02-06T07:19:03.093Z,-0.20
2023-02-06T07:20:03.158Z,-0.20
2023-02-06T07:21:03.144Z,-0.20
2023-02-06T07:22:03.128Z,-0.20
2023-02-06T07:23:02.996Z,-0.20
2023-02-06T07:24:02.975Z,-0.20
2023-02-06T07:25:02.881Z,-0.20
2023-02-06T07:26:03.030Z,-0.20
2023-02-06T07:27:02.945Z,-0.20
2023-02-06T07:28:02.904Z,-0.20
2023-02-06T07:29:02.973Z,-0.20
2023-02-06T07:30:04.498Z,-0.20
2023-02-06T07:31:02.999Z,-0.20
2023-02-06T07:32:02.960Z,-0.20
2023-02-06T07:33:02.901Z,-0.20
2023-02-06T07:34:02.850Z,-0.20
2023-02-06T07:35:03.021Z,-0.20
2023-02-06T07:36:04.100Z,-0.20
2023-02-06T07:37:02.847Z,-0.20
2023-02-06T07:38:02.731Z,-0.20
2023-02-06T07:39:02.769Z,-0.20
2023-02-06T07:40:02.711Z,-0.10
2023-02-06T07:41:02.796Z,-0.20
2023-02-06T07:42:02.648Z,-0.10
2023-02-06T07:43:02.668Z,-0.20
2023-02-06T07:44:03.615Z,-0.10
2023-02-06T07:45:02.634Z,-0.10
2023-02-06T07:46:02.740Z,-0.10
2023-02-06T07:47:03.598Z,-0.10
2023-02-06T07:48:02.741Z,-0.10
2023-02-06T07:49:02.635Z,-0.10
2023-02-06T07:50:02.702Z,-0.10
2023-02-06T07:51:02.851Z,-0.10
2023-02-06T07:52:02.888Z,-0.10
2023-02-06T07:53:02.974Z,-0.10
2023-02-06T07:54:02.887Z,-0.10
2023-02-06T07:55:02.885Z,-0.10
2023-02-06T07:56:02.790Z,-0.10
2023-02-06T07:57:02.808Z,-0.10
2023-02-06T07:58:02.854Z,-0.10
2023-02-06T07:59:02.949Z,-0.10
2023-02-06T08:00:02.928Z,-0.10
2023-02-06T08:01:03.022Z,-0.10
2023-02-06T08:02:02.838Z,-0.10
2023-02-06T08:03:02.770Z,-0.10
2023-02-06T08:04:02.699Z,-0.10
2023-02-06T08:05:02.616Z,-0.10
2023-02-06T08:06:03.572Z,-0.10
2023-02-06T08:07:03.514Z,-0.10
2023-02-06T08:08:03.436Z,-0.10
2023-02-06T08:09:03.535Z,-0.10
2023-02-06T08:10:03.497Z,-0.10
2023-02-06T08:11:03.434Z,-0.10
2023-02-06T08:12:03.437Z,-0.10
2023-02-06T08:13:03.366Z,0.00
2023-02-06T08:14:03.270Z,0.00
2023-02-06T08:15:03.340Z,-0.10
2023-02-06T08:16:03.621Z,0.00
2023-02-06T08:17:03.526Z,0.00
2023-02-06T08:18:02.708Z,0.00
2023-02-06T08:19:02.713Z,0.00
2023-02-06T08:20:03.575Z,0.00
2023-02-06T08:21:03.547Z,0.00
2023-02-06T08:22:03.554Z,0.00
2023-02-06T08:23:03.442Z,0.00
2023-02-06T08:24:03.559Z,0.00
2023-02-06T08:25:03.601Z,0.00
2023-02-06T08:26:03.652Z,0.00
2023-02-06T08:27:03.624Z,0.00
2023-02-06T08:28:03.718Z,0.00
2023-02-06T08:29:03.503Z,0.00
2023-02-06T08:30:03.492Z,0.00
2023-02-06T08:31:04.813Z,0.00
2023-02-06T08:32:03.304Z,0.00
2023-02-06T08:33:03.348Z,0.00
2023-02-06T08:34:03.451Z,0.00
2023-02-06T08:35:03.468Z,0.10
2023-02-06T08:36:03.414Z,0.10
2023-02-06T08:37:03.341Z,0.10
2023-02-06T08:38:03.297Z,0.10
2023-02-06T08:39:03.307Z,0.10
2023-02-06T08:40:03.357Z,0.10
2023-02-06T08:41:03.333Z,0.10
2023-02-06T08:42:03.383Z,0.10
2023-02-06T08:43:03.341Z,0.10
2023-02-06T08:44:03.345Z,0.10
2023-02-06T08:45:03.458Z,0.10
2023-02-06T08:46:03.494Z,0.10
2023-02-06T08:47:09.908Z,0.10
2023-02-06T08:48:03.399Z,0.10
2023-02-06T08:49:03.349Z,0.10
2023-02-06T08:50:03.881Z,0.20
2023-02-06T08:51:03.446Z,0.20
2023-02-06T08:52:03.510Z,0.20
2023-02-06T08:53:03.561Z,0.20
2023-02-06T08:54:03.596Z,0.20
2023-02-06T08:55:03.538Z,0.20
2023-02-06T08:56:03.452Z,0.20
2023-02-06T08:57:03.531Z,0.20
2023-02-06T08:58:02.612Z,0.20
2023-02-06T08:59:02.761Z,0.20
2023-02-06T09:00:02.872Z,0.20
2023-02-06T09:01:02.729Z,0.20
2023-02-06T09:02:02.679Z,0.20
2023-02-06T09:03:03.702Z,0.20
2023-02-06T09:04:02.714Z,0.20
2023-02-06T09:05:03.602Z,0.20
2023-02-06T09:06:09.285Z,0.20
2023-02-06T09:07:03.664Z,0.30
2023-02-06T09:08:03.553Z,0.20
2023-02-06T09:09:03.611Z,0.30
2023-02-06T09:10:03.561Z,0.30
2023-02-06T09:11:02.697Z,0.30
2023-02-06T09:12:02.627Z,0.30
2023-02-06T09:13:03.562Z,0.30
2023-02-06T09:14:03.571Z,0.30
2023-02-06T09:15:03.609Z,0.30
2023-02-06T09:16:03.547Z,0.30
2023-02-06T09:17:03.652Z,0.30
2023-02-06T09:18:03.511Z,0.30
2023-02-06T09:19:03.552Z,0.30
2023-02-06T09:20:03.634Z,0.30
2023-02-06T09:21:03.555Z,0.30
2023-02-06T09:22:03.573Z,0.40
2023-02-06T09:23:03.517Z,0.40
2023-02-06T09:24:03.588Z,0.40
2023-02-06T09:25:03.589Z,0.40
2023-02-06T09:26:02.653Z,0.40
2023-02-06T09:27:02.609Z,0.40
2023-02-06T09:28:02.760Z,0.40
2023-02-06T09:29:02.643Z,0.40
2023-02-06T09:30:03.617Z,0.40
2023-02-06T09:31:03.819Z,0.40
2023-02-06T09:32:02.774Z,0.40
2023-02-06T09:33:02.620Z,0.40
2023-02-06T09:34:03.543Z,0.40
2023-02-06T09:35:03.556Z,0.40
2023-02-06T09:36:03.460Z,0.40
2023-02-06T09:37:03.585Z,0.40
2023-02-06T09:38:03.617Z,0.50
2023-02-06T09:39:03.592Z,0.50
2023-02-06T09:40:02.675Z,0.50
2023-02-06T09:41:03.605Z,0.50
2023-02-06T09:42:02.669Z,0.50
2023-02-06T09:43:02.642Z,0.50
2023-02-06T09:44:02.678Z,0.50
2023-02-06T09:45:03.608Z,0.50
2023-02-06T09:46:03.631Z,0.50
2023-02-06T09:47:03.515Z,0.50
2023-02-06T09:48:03.529Z,0.50
2023-02-06T09:49:03.599Z,0.50
2023-02-06T09:50:03.502Z,0.50
2023-02-06T09:51:03.449Z,0.50
2023-02-06T09:52:03.471Z,0.50
2023-02-06T09:53:03.331Z,0.50
2023-02-06T09:54:03.264Z,0.50
2023-02-06T09:55:03.275Z,0.50
2023-02-06T09:56:03.156Z,0.50
2023-02-06T09:57:03.214Z,0.50
2023-02-06T09:58:03.208Z,0.50
2023-02-06T09:59:03.273Z,0.50
2023-02-06T10:00:03.232Z,0.50
2023-02-06T10:01:03.479Z,0.50
2023-02-06T10:02:03.318Z,0.50
2023-02-06T10:03:03.384Z,0.50
2023-02-06T10:04:03.437Z,0.60
2023-02-06T10:05:03.374Z,0.60
2023-02-06T10:06:03.324Z,0.60
2023-02-06T10:07:03.359Z,0.60
2023-02-06T10:08:03.479Z,0.60
2023-02-06T10:09:03.637Z,0.60
2023-02-06T10:10:03.634Z,0.60
2023-02-06T10:11:03.615Z,0.60
2023-02-06T10:12:03.481Z,0.60
2023-02-06T10:13:03.543Z,0.60
2023-02-06T10:14:03.534Z,0.60
2023-02-06T10:15:03.431Z,0.60
2023-02-06T10:16:04.346Z,0.70
2023-02-06T10:17:03.411Z,0.60
2023-02-06T10:18:03.456Z,0.60
2023-02-06T10:19:03.364Z,0.70
2023-02-06T10:20:03.313Z,0.70
2023-02-06T10:21:03.221Z,0.70
2023-02-06T10:22:03.140Z,0.70
2023-02-06T10:23:03.114Z,0.70
2023-02-06T10:24:03.129Z,0.70
2023-02-06T10:25:03.122Z,0.70
2023-02-06T10:26:03.196Z,0.70
2023-02-06T10:27:03.181Z,0.70
2023-02-06T10:28:03.428Z,0.70
2023-02-06T10:29:03.436Z,0.70
2023-02-06T10:30:03.429Z,0.70
2023-02-06T10:31:03.678Z,0.70
2023-02-06T10:32:03.491Z,0.70
2023-02-06T10:33:02.685Z,0.70
2023-02-06T10:34:02.621Z,0.70
2023-02-06T10:35:03.619Z,0.70
2023-02-06T10:36:03.549Z,0.70
2023-02-06T10:37:03.552Z,0.70
2023-02-06T10:38:02.717Z,0.70
2023-02-06T10:39:03.591Z,0.70
2023-02-06T10:40:03.537Z,0.70
2023-02-06T10:41:03.583Z,0.70
2023-02-06T10:42:03.613Z,0.70
2023-02-06T10:43:03.450Z,0.70
2023-02-06T10:44:03.609Z,0.70
2023-02-06T10:45:18.852Z,0.80
2023-02-06T10:46:03.434Z,0.70
2023-02-06T10:47:03.497Z,0.70
2023-02-06T10:48:03.578Z,0.70
2023-02-06T10:49:03.472Z,0.70
2023-02-06T10:50:03.464Z,0.70
2023-02-06T10:51:03.541Z,0.70
2023-02-06T10:52:03.473Z,0.70
2023-02-06T10:53:03.575Z,0.80
2023-02-06T10:54:03.534Z,0.70
2023-02-06T10:55:03.474Z,0.80
2023-02-06T10:56:03.593Z,0.80
2023-02-06T10:57:03.669Z,0.80
2023-02-06T10:58:03.643Z,0.80
2023-02-06T10:59:03.601Z,0.80
2023-02-06T11:00:03.612Z,0.80
2023-02-06T11:01:05.464Z,0.80
2023-02-06T11:02:03.648Z,0.80
2023-02-06T11:03:07.781Z,0.80
2023-02-06T11:04:03.626Z,0.80
2023-02-06T11:05:03.678Z,0.80
2023-02-06T11:06:03.591Z,0.80
2023-02-06T11:07:02.678Z,0.80
2023-02-06T11:08:03.571Z,0.80
2023-02-06T11:09:02.684Z,0.80
2023-02-06T11:10:02.676Z,0.80
2023-02-06T11:11:02.715Z,0.80
2023-02-06T11:12:02.694Z,0.80
2023-02-06T11:13:03.580Z,0.80
2023-02-06T11:14:03.517Z,0.80
2023-02-06T11:15:03.586Z,0.80
2023-02-06T11:16:03.654Z,0.80
2023-02-06T11:17:03.687Z,0.80
2023-02-06T11:18:03.518Z,0.80
2023-02-06T11:19:03.529Z,0.80
2023-02-06T11:20:03.582Z,0.80
2023-02-06T11:21:02.648Z,0.80
2023-02-06T11:22:03.591Z,0.80
2023-02-06T11:23:02.671Z,0.80
2023-02-06T11:24:02.684Z,0.80
2023-02-06T11:25:02.625Z,0.80
2023-02-06T11:26:03.595Z,0.80
2023-02-06T11:27:03.567Z,0.80
2023-02-06T11:28:03.541Z,0.80
2023-02-06T11:29:03.590Z,0.80
2023-02-06T11:30:03.581Z,0.70
2023-02-06T11:31:03.612Z,0.80
2023-02-06T11:32:03.521Z,0.70
2023-02-06T11:33:04.844Z,0.70
2023-02-06T11:34:03.601Z,0.70
2023-02-06T11:35:03.551Z,0.70
2023-02-06T11:36:03.542Z,0.70
2023-02-06T11:37:03.556Z,0.70
2023-02-06T11:38:05.348Z,0.70
2023-02-06T11:39:03.556Z,0.70
2023-02-06T11:40:03.544Z,0.70
2023-02-06T11:41:03.546Z,0.70
2023-02-06T11:42:03.573Z,0.70
2023-02-06T11:43:02.613Z,0.70
2023-02-06T11:44:02.854Z,0.70
2023-02-06T11:45:02.631Z,0.70
2023-02-06T11:46:03.718Z,0.70
2023-02-06T11:47:03.612Z,0.70
2023-02-06T11:48:02.705Z,0.70
2023-02-06T11:49:03.003Z,0.70
2023-02-06T11:50:03.144Z,0.70
2023-02-06T11:51:03.161Z,0.70
2023-02-06T11:52:03.125Z,0.70
2023-02-06T11:53:02.992Z,0.70
2023-02-06T11:54:03.160Z,0.70
2023-02-06T11:55:03.079Z,0.70
2023-02-06T11:56:03.095Z,0.70
2023-02-06T11:57:03.084Z,0.70
2023-02-06T11:58:03.099Z,0.70
2023-02-06T11:59:03.579Z,0.70
2023-02-06T12:00:02.889Z,0.70
2023-02-06T12:01:02.854Z,0.70
2023-02-06T12:02:02.776Z,0.70
2023-02-06T12:03:03.755Z,0.70
2023-02-06T12:04:02.704Z,0.70
2023-02-06T12:05:03.677Z,0.70
2023-02-06T12:06:03.775Z,0.70
2023-02-06T12:07:03.571Z,0.70
2023-02-06T12:08:03.570Z,0.70
2023-02-06T12:09:03.678Z,0.70
2023-02-06T12:10:03.568Z,0.70
2023-02-06T12:11:03.509Z,0.70
2023-02-06T12:12:03.575Z,0.70
2023-02-06T12:13:03.448Z,0.70
2023-02-06T12:14:03.421Z,0.70
2023-02-06T12:15:18.414Z,0.70
2023-02-06T12:16:03.053Z,0.70
2023-02-06T12:17:02.988Z,0.70
2023-02-06T12:18:03.082Z,0.70
2023-02-06T12:19:03.010Z,0.70
2023-02-06T12:20:03.051Z,0.70
2023-02-06T12:21:03.031Z,0.70
2023-02-06T12:22:03.000Z,0.70
2023-02-06T12:23:02.969Z,0.70
2023-02-06T12:24:02.908Z,0.70
2023-02-06T12:25:02.933Z,0.70
2023-02-06T12:26:02.896Z,0.70
2023-02-06T12:27:02.928Z,0.70
2023-02-06T12:28:02.980Z,0.70
2023-02-06T12:29:02.892Z,0.70
2023-02-06T12:30:03.009Z,0.70
2023-02-06T12:31:03.058Z,0.70
2023-02-06T12:32:02.938Z,0.70
2023-02-06T12:33:02.959Z,0.70
2023-02-06T12:34:02.837Z,0.70
2023-02-06T12:35:02.845Z,0.70
2023-02-06T12:36:02.772Z,0.70
2023-02-06T12:37:02.729Z,0.70
2023-02-06T12:38:02.664Z,0.70
2023-02-06T12:39:02.752Z,0.70
2023-02-06T12:40:02.784Z,0.70
2023-02-06T12:41:02.820Z,0.70
2023-02-06T12:42:02.733Z,0.70
2023-02-06T12:43:02.690Z,0.70
2023-02-06T12:44:03.651Z,0.70
2023-02-06T12:45:03.554Z,0.70
2023-02-06T12:46:02.747Z,0.70
2023-02-06T12:47:02.700Z,0.70
2023-02-06T12:48:02.807Z,0.70
2023-02-06T12:49:02.716Z,0.70
2023-02-06T12:50:02.634Z,0.70
2023-02-06T12:51:02.783Z,0.70
2023-02-06T12:52:02.679Z,0.70
2023-02-06T12:53:03.607Z,0.70
2023-02-06T12:54:03.597Z,0.70
2023-02-06T12:55:02.740Z,0.70
2023-02-06T12:56:03.584Z,0.70
2023-02-06T12:57:03.574Z,0.70
2023-02-06T12:58:03.623Z,0.70
2023-02-06T12:59:03.559Z,0.70
2023-02-06T13:00:03.461Z,0.70
2023-02-06T13:01:03.435Z,0.70
2023-02-06T13:02:03.455Z,0.70